createdAt,value
2022-12-17T00:00:13.986Z,-0.20
2022-12-17T00:03:05.463Z,-0.20
2022-12-17T00:06:06.964Z,-0.20
2022-12-17T00:09:02.487Z,0.00
2022-12-17T00:12:04.112Z,-0.10
2022-12-17T00:14:58.112Z,0.10
2022-12-17T00:18:03.005Z,0.00
2022-12-17T00:21:00.427Z,-0.10
2022-12-17T00:24:01.044Z,-0.20
2022-12-17T00:26:58.072Z,0.00
2022-12-17T00:29:44.590Z,-0.20
2022-12-17T00:32:30.652Z,0.10
2022-12-17T00:35:35.710Z,0.10
2022-12-17T00:38:24.996Z,0.00
2022-12-17T00:41:17.055Z,0.00
2022-12-17T00:44:06.185Z,0.00
2022-12-17T00:46:58.039Z,0.10
2022-12-17T00:49:50.380Z,-0.10
2022-12-17T00:55:57.481Z,-0.20
2022-12-17T00:58:52.386Z,-0.20
2022-12-17T01:01:46.165Z,-0.20
2022-12-17T01:04:41.700Z,-0.10
2022-12-17T01:08:00.289Z,-0.10
2022-12-17T01:11:08.465Z,-0.10
2022-12-17T01:14:00.054Z,-0.20
2022-12-17T01:16:46.628Z,0.00
2022-12-17T01:19:34.147Z,-0.10
2022-12-17T01:22:21.329Z,0.00
2022-12-17T01:25:09.442Z,-0.10
2022-12-17T01:27:56.267Z,-0.10
2022-12-17T01:30:46.896Z,-0.20
2022-12-17T01:33:39.570Z,-0.20
2022-12-17T01:36:28.834Z,-0.20
2022-12-17T01:39:15.434Z,-0.20
2022-12-17T01:42:06.275Z,-0.20
2022-12-17T01:45:17.435Z,0.00
2022-12-17T01:48:09.516Z,-0.20
2022-12-17T01:50:58.813Z,-0.20
2022-12-17T01:53:48.931Z,-0.20
2022-12-17T01:59:40.068Z,-0.20
2022-12-17T02:02:27.032Z,0.00
2022-12-17T02:05:15.564Z,-0.30
2022-12-17T02:08:36.612Z,-0.20
2022-12-17T02:11:31.784Z,-0.30
2022-12-17T02:14:25.928Z,-0.30
2022-12-17T02:17:30.156Z,-0.10
2022-12-17T02:20:35.339Z,-0.30
2022-12-17T02:23:33.139Z,-0.30
2022-12-17T02:26:32.670Z,-0.30
2022-12-17T02:29:37.864Z,-0.30
2022-12-17T02:32:36.680Z,-0.40
2022-12-17T02:39:13.494Z,-0.30
2022-12-17T02:42:04.874Z,-0.40
2022-12-17T02:45:02.654Z,-0.30
2022-12-17T02:47:49.431Z,-0.30
2022-12-17T02:50:44.546Z,-0.30
2022-12-17T02:53:41.013Z,-0.30
2022-12-17T02:56:30.071Z,-0.30
2022-12-17T02:59:31.233Z,-0.30
2022-12-17T03:02:25.488Z,-0.20
2022-12-17T03:05:43.446Z,-0.40
2022-12-17T03:08:25.649Z,-0.40
2022-12-17T03:11:15.680Z,-0.20
2022-12-17T03:14:19.333Z,-0.20
2022-12-17T03:17:20.100Z,-0.40
2022-12-17T03:20:43.283Z,-0.20
2022-12-17T03:23:39.028Z,-0.20
2022-12-17T03:26:41.969Z,-0.30
2022-12-17T03:29:30.499Z,-0.30
2022-12-17T03:32:19.879Z,-0.20
2022-12-17T03:35:09.551Z,-0.20
2022-12-17T03:37:59.043Z,-0.30
2022-12-17T03:40:45.292Z,-0.20
2022-12-17T03:43:31.537Z,-0.20
2022-12-17T03:46:19.311Z,-0.30
2022-12-17T03:49:19.954Z,-0.10
2022-12-17T03:52:28.318Z,-0.10
2022-12-17T03:55:23.056Z,-0.10
2022-12-17T03:58:23.185Z,0.00
2022-12-17T04:01:23.270Z,0.10
2022-12-17T04:04:09.745Z,-0.10
2022-12-17T04:06:57.362Z,0.20
2022-12-17T04:09:47.407Z,0.10
2022-12-17T04:12:38.398Z,0.20
2022-12-17T04:15:28.010Z,0.20
2022-12-17T04:18:23.024Z,0.30
2022-12-17T04:21:12.328Z,0.10
2022-12-17T04:24:05.997Z,0.30
2022-12-17T04:27:01.508Z,0.60
2022-12-17T04:29:52.741Z,0.40
2022-12-17T04:32:54.508Z,0.50
2022-12-17T04:36:01.175Z,0.40
2022-12-17T04:39:05.571Z,0.50
2022-12-17T04:42:01.478Z,0.60
2022-12-17T05:00:17.926Z,0.70
2022-12-17T05:03:21.641Z,0.70
2022-12-17T05:06:36.047Z,0.80
2022-12-17T05:09:37.616Z,0.90
2022-12-17T05:12:34.166Z,0.90
2022-12-17T05:16:23.049Z,0.70
2022-12-17T05:22:12.996Z,0.70
2022-12-17T05:25:13.244Z,1.10
2022-12-17T05:28:05.455Z,0.80
2022-12-17T05:31:21.012Z,0.80
2022-12-17T05:34:27.021Z,0.80
2022-12-17T05:41:16.492Z,0.90
2022-12-17T05:44:19.658Z,0.80
2022-12-17T06:16:21.197Z,0.80
2022-12-17T06:20:03.988Z,0.70
2022-12-17T06:23:01.836Z,0.70
2022-12-17T06:25:48.777Z,0.80
2022-12-17T06:29:02.787Z,0.80
2022-12-17T06:31:54.996Z,1.00
2022-12-17T06:34:57.974Z,0.90
2022-12-17T06:37:50.159Z,0.90
2022-12-17T06:40:57.264Z,0.90
2022-12-17T06:50:47.363Z,0.90
2022-12-17T06:53:53.027Z,0.90
2022-12-17T06:57:04.585Z,0.90
2022-12-17T07:00:14.920Z,1.00
2022-12-17T07:03:22.029Z,0.90
2022-12-17T07:10:13.901Z,1.00
2022-12-17T07:13:17.469Z,1.10
2022-12-17T07:16:54.438Z,0.90
2022-12-17T07:20:03.754Z,1.10
2022-12-17T07:27:25.094Z,1.10
2022-12-17T07:30:19.174Z,1.10
2022-12-17T07:38:12.000Z,1.10
2022-12-17T07:42:40.508Z,1.30
2022-12-17T07:45:26.378Z,0.90
2022-12-17T07:48:22.249Z,1.00
2022-12-17T07:51:29.791Z,1.10
2022-12-17T07:54:18.288Z,1.20
2022-12-17T07:57:17.791Z,1.20
2022-12-17T08:01:05.085Z,1.40
2022-12-17T08:04:28.957Z,1.30
2022-12-17T08:07:38.960Z,1.30
2022-12-17T08:10:58.402Z,1.40
2022-12-17T08:13:58.804Z,1.30
2022-12-17T08:16:58.657Z,1.40
2022-12-17T08:20:05.243Z,1.40
2022-12-17T08:22:55.862Z,1.30
2022-12-17T08:26:00.555Z,1.30
2022-12-17T08:31:58.413Z,1.50
2022-12-17T08:34:54.646Z,1.20
2022-12-17T08:37:58.614Z,1.30
2022-12-17T08:40:53.428Z,1.50
2022-12-17T08:44:14.912Z,1.40
2022-12-17T08:47:06.255Z,1.50
2022-12-17T08:49:56.359Z,1.30
2022-12-17T09:01:02.370Z,1.40
2022-12-17T09:35:42.587Z,1.60
2022-12-17T09:38:31.013Z,1.70
2022-12-17T09:41:51.721Z,1.80
2022-12-17T09:44:50.743Z,1.80
2022-12-17T09:48:03.605Z,1.90
2022-12-17T09:51:07.108Z,1.80
2022-12-17T10:00:47.108Z,2.00
2022-12-17T11:14:30.356Z,2.00
2022-12-17T11:17:42.230Z,1.90
2022-12-17T11:20:45.256Z,2.20
2022-12-17T11:23:51.866Z,2.10
2022-12-17T11:31:14.457Z,2.20
2022-12-17T11:34:17.621Z,2.20
2022-12-17T11:37:19.632Z,2.30
2022-12-17T11:40:27.512Z,2.30
2022-12-17T11:43:29.524Z,2.30
2022-12-17T11:47:04.200Z,2.50
2022-12-17T11:50:15.576Z,2.30
2022-12-17T11:53:24.278Z,2.30
2022-12-17T12:00:02.281Z,2.30
2022-12-17T12:03:17.218Z,2.30
2022-12-17T12:06:20.209Z,2.40
2022-12-17T12:09:15.018Z,2.40
2022-12-17T12:12:12.447Z,2.40
2022-12-17T12:15:14.914Z,2.40
2022-12-17T12:18:08.852Z,2.50
2022-12-17T12:21:25.333Z,2.40
2022-12-17T12:24:27.515Z,2.40
2022-12-17T12:27:22.799Z,2.40
2022-12-17T12:30:20.642Z,2.50
2022-12-17T12:33:21.457Z,2.50
2022-12-17T12:37:04.584Z,2.40
2022-12-17T12:44:12.142Z,2.20
2022-12-17T12:47:06.908Z,2.40
2022-12-17T12:50:00.818Z,2.30
2022-12-17T12:52:53.803Z,2.30
2022-12-17T13:00:17.081Z,2.40
2022-12-17T13:04:05.801Z,2.40
2022-12-17T13:07:28.762Z,2.30
2022-12-17T13:10:35.700Z,2.40
2022-12-17T13:17:02.152Z,2.40
2022-12-17T13:32:25.409Z,2.30
2022-12-17T13:35:10.440Z,2.40
2022-12-17T13:37:50.657Z,2.20
2022-12-17T13:40:31.156Z,2.30
2022-12-17T13:43:00.316Z,2.40
2022-12-17T13:45:30.170Z,2.20
2022-12-17T13:48:01.590Z,2.20
2022-12-17T13:50:34.784Z,2.20
2022-12-17T13:53:29.377Z,2.10
2022-12-17T13:56:02.434Z,2.20
2022-12-17T13:58:34.305Z,2.30
2022-12-17T14:01:24.087Z,2.20
2022-12-17T14:04:08.093Z,2.20
2022-12-17T14:07:17.802Z,2.20
2022-12-17T14:10:09.318Z,2.20
2022-12-17T14:12:46.284Z,2.20
2022-12-17T14:15:25.941Z,2.50
2022-12-17T14:18:27.899Z,2.10
2022-12-17T14:21:10.556Z,2.20
2022-12-17T14:23:49.750Z,2.10
2022-12-17T14:26:56.241Z,2.00
2022-12-17T14:29:35.071Z,1.90
2022-12-17T14:32:54.043Z,2.20
2022-12-17T14:38:58.271Z,2.20
2022-12-17T14:41:57.522Z,2.20
2022-12-17T14:44:38.976Z,2.10
2022-12-17T14:47:21.716Z,2.10
2022-12-17T14:50:04.860Z,2.20
2022-12-17T14:52:45.747Z,2.20
2022-12-17T14:55:37.288Z,2.20
2022-12-17T14:58:36.096Z,2.20
2022-12-17T15:01:10.697Z,2.20
2022-12-17T15:03:46.417Z,2.10
2022-12-17T15:06:26.721Z,2.00
2022-12-17T15:09:34.635Z,1.90
2022-12-17T15:12:13.253Z,1.80
2022-12-17T15:14:46.774Z,1.80
2022-12-17T15:21:18.986Z,1.80
2022-12-17T15:24:34.803Z,1.80
2022-12-17T15:27:11.556Z,1.80
2022-12-17T15:30:15.775Z,1.80
2022-12-17T15:32:47.666Z,1.80
2022-12-17T15:35:20.939Z,1.80
2022-12-17T15:37:50.562Z,1.70
2022-12-17T15:40:21.561Z,1.90
2022-12-17T15:43:12.035Z,1.80
2022-12-17T15:45:49.096Z,1.80
2022-12-17T15:48:19.551Z,1.80
2022-12-17T15:50:48.503Z,1.80
2022-12-17T15:53:18.190Z,1.80
2022-12-17T15:59:29.497Z,1.80
2022-12-17T16:02:38.800Z,1.70
2022-12-17T16:05:37.909Z,1.80
2022-12-17T16:08:26.279Z,1.90
2022-12-17T16:11:22.188Z,1.70
2022-12-17T16:14:20.224Z,2.00
2022-12-17T16:17:17.650Z,1.90
2022-12-17T16:20:03.190Z,2.00
2022-12-17T16:22:51.720Z,1.90
2022-12-17T16:25:43.234Z,1.90
2022-12-17T16:28:38.028Z,1.70
2022-12-17T16:34:43.747Z,1.60
2022-12-17T16:37:17.801Z,1.70
2022-12-17T16:58:32.810Z,1.30
2022-12-17T17:01:14.166Z,1.20
2022-12-17T17:03:43.883Z,1.10
2022-12-17T17:06:16.484Z,1.00
2022-12-17T17:08:53.756Z,1.00
2022-12-17T17:11:31.241Z,1.00
2022-12-17T17:14:04.190Z,0.80
2022-12-17T17:16:41.535Z,0.80
2022-12-17T17:19:19.913Z,0.70
2022-12-17T17:21:53.025Z,0.70
2022-12-17T17:24:35.413Z,0.50
2022-12-17T17:27:10.355Z,0.50
2022-12-17T17:29:50.296Z,0.50
2022-12-17T17:32:19.171Z,0.40
2022-12-17T17:35:03.460Z,0.50
2022-12-17T17:37:32.351Z,0.50
2022-12-17T17:40:25.397Z,0.70
2022-12-17T20:26:38.874Z,-2.50
2022-12-17T20:30:05.993Z,-2.70
2022-12-17T20:33:16.875Z,-2.70
2022-12-17T20:57:10.606Z,-3.30
2022-12-17T21:15:11.660Z,-3.20
2022-12-17T21:18:10.679Z,-3.40
2022-12-17T21:21:15.835Z,-3.30
2022-12-17T22:44:29.506Z,-4.30
2022-12-17T23:15:25.568Z,-4.90
2022-12-17T23:22:02.603Z,-4.90
2022-12-17T23:28:31.695Z,-5.00
2022-12-17T23:31:55.674Z,-5.10
2022-12-17T23:41:46.091Z,-4.90
2022-12-17T23:48:15.781Z,-5.00
2022-12-17T23:51:57.782Z,-5.00
